createdAt,value
2022-12-30T00:01:36.950Z,16.05
2022-12-30T00:04:05.351Z,14.75
2022-12-30T00:06:33.445Z,13.20
2022-12-30T00:09:01.244Z,12.27
2022-12-30T00:11:32.306Z,11.23
2022-12-30T00:14:25.000Z,14.60
2022-12-30T00:17:14.115Z,12.93
2022-12-30T00:20:03.113Z,16.50
2022-12-30T00:22:55.106Z,15.45
2022-12-30T00:25:53.904Z,16.98
2022-12-30T00:28:47.171Z,14.70
2022-12-30T00:31:54.023Z,15.00
2022-12-30T00:34:35.838Z,15.80
2022-12-30T00:37:06.856Z,16.77
2022-12-30T00:39:35.074Z,15.68
2022-12-30T00:42:21.312Z,17.62
2022-12-30T00:44:49.573Z,14.15
2022-12-30T00:47:17.587Z,14.02
2022-12-30T00:50:03.874Z,11.45
2022-12-30T00:52:51.076Z,13.60
2022-12-30T00:55:37.582Z,13.32
2022-12-30T00:58:05.752Z,11.30
2022-12-30T01:00:33.622Z,20.75
2022-12-30T01:03:04.730Z,11.68
2022-12-30T01:05:32.966Z,16.62
2022-12-30T01:08:00.808Z,20.85
2022-12-30T01:10:28.740Z,16.05
2022-12-30T01:12:59.954Z,19.17
2022-12-30T01:15:27.848Z,18.58
2022-12-30T01:17:56.105Z,19.60
2022-12-30T01:20:23.971Z,17.85
2022-12-30T01:22:51.956Z,18.98
2022-12-30T01:25:20.281Z,18.00
2022-12-30T01:27:52.544Z,22.30
2022-12-30T01:30:20.705Z,18.30
2022-12-30T01:32:48.566Z,16.60
2022-12-30T01:35:16.554Z,21.62
2022-12-30T01:37:44.809Z,19.27
2022-12-30T01:40:12.918Z,19.77
2022-12-30T01:42:44.883Z,18.83
2022-12-30T01:45:28.681Z,20.40
2022-12-30T01:48:29.423Z,25.67
2022-12-30T01:51:03.369Z,17.40
2022-12-30T01:53:39.523Z,19.87
2022-12-30T01:56:29.837Z,18.27
2022-12-30T01:59:13.014Z,25.42
2022-12-30T02:01:42.934Z,22.87
2022-12-30T02:04:17.980Z,19.75
2022-12-30T02:07:05.421Z,21.45
2022-12-30T02:09:35.202Z,22.75
2022-12-30T02:12:04.773Z,24.90
2022-12-30T02:14:36.741Z,20.50
2022-12-30T02:17:14.962Z,21.37
2022-12-30T02:20:36.872Z,23.45
2022-12-30T02:23:38.666Z,26.23
2022-12-30T02:26:50.089Z,20.85
2022-12-30T02:29:33.239Z,22.67
2022-12-30T02:32:15.888Z,22.83
2022-12-30T02:34:54.646Z,28.73
2022-12-30T02:37:34.623Z,25.67
2022-12-30T02:40:28.825Z,30.12
2022-12-30T02:43:26.248Z,27.33
2022-12-30T02:46:05.937Z,24.12
2022-12-30T02:48:36.952Z,19.80
2022-12-30T02:51:26.580Z,25.45
2022-12-30T02:53:54.751Z,29.35
2022-12-30T02:56:23.012Z,28.77
2022-12-30T02:59:17.823Z,27.80
2022-12-30T03:02:27.773Z,23.55
2022-12-30T03:05:17.358Z,24.85
2022-12-30T03:08:13.896Z,25.02
2022-12-30T03:11:18.347Z,30.73
2022-12-30T03:14:10.290Z,23.95
2022-12-30T03:16:52.989Z,22.73
2022-12-30T03:19:30.153Z,20.88
2022-12-30T03:21:58.344Z,29.35
2022-12-30T03:24:50.393Z,33.42
2022-12-30T03:27:22.928Z,29.58
2022-12-30T03:32:24.132Z,26.10
2022-12-30T03:34:52.675Z,35.30
2022-12-30T03:37:44.946Z,27.52
2022-12-30T03:40:22.749Z,24.00
2022-12-30T03:42:53.858Z,21.52
2022-12-30T03:45:23.469Z,16.80
2022-12-30T03:47:51.439Z,24.20
2022-12-30T03:50:19.441Z,22.42
2022-12-30T03:52:47.699Z,27.65
2022-12-30T03:55:15.586Z,29.05
2022-12-30T03:57:43.529Z,30.12
2022-12-30T04:00:12.616Z,29.23
2022-12-30T04:02:44.679Z,26.62
2022-12-30T04:05:12.619Z,24.40
2022-12-30T04:07:40.757Z,31.40
2022-12-30T04:10:12.120Z,21.02
2022-12-30T04:12:41.246Z,30.30
2022-12-30T04:15:09.834Z,27.67
2022-12-30T04:17:37.568Z,31.60
2022-12-30T04:20:05.986Z,31.73
2022-12-30T04:22:37.219Z,20.90
2022-12-30T04:25:05.865Z,32.20
2022-12-30T04:27:33.988Z,21.55
2022-12-30T04:30:02.512Z,29.10
2022-12-30T04:32:32.692Z,24.58
2022-12-30T04:35:00.867Z,32.50
2022-12-30T04:37:31.816Z,30.95
2022-12-30T04:40:00.128Z,33.35
2022-12-30T04:42:27.985Z,27.05
2022-12-30T04:44:55.827Z,27.48
2022-12-30T04:47:24.080Z,33.47
2022-12-30T04:49:51.732Z,26.25
2022-12-30T04:52:22.337Z,31.95
2022-12-30T04:54:50.498Z,24.10
2022-12-30T04:57:18.322Z,30.70
2022-12-30T04:59:46.225Z,33.00
2022-12-30T05:02:17.465Z,27.17
2022-12-30T05:04:45.368Z,32.00
2022-12-30T05:07:13.233Z,28.12
2022-12-30T05:09:41.473Z,30.25
2022-12-30T05:12:09.444Z,36.10
2022-12-30T05:14:37.167Z,27.50
2022-12-30T05:17:05.427Z,32.58
2022-12-30T05:19:33.277Z,31.40
2022-12-30T05:22:01.105Z,26.27
2022-12-30T05:24:50.643Z,26.73
2022-12-30T05:27:21.358Z,38.05
2022-12-30T05:29:49.476Z,28.50
2022-12-30T05:32:20.352Z,38.63
2022-12-30T05:34:51.230Z,39.95
2022-12-30T05:37:19.431Z,30.88
2022-12-30T05:39:47.262Z,32.97
2022-12-30T05:42:16.238Z,26.00
2022-12-30T05:44:44.487Z,34.67
2022-12-30T05:47:12.426Z,33.33
2022-12-30T05:49:45.278Z,26.77
2022-12-30T05:52:13.636Z,32.17
2022-12-30T05:54:44.666Z,28.80
2022-12-30T05:57:12.653Z,33.35
2022-12-30T05:59:40.866Z,36.75
2022-12-30T06:02:11.715Z,35.30
2022-12-30T06:04:43.284Z,31.87
2022-12-30T06:07:11.169Z,31.45
2022-12-30T06:09:39.010Z,35.70
2022-12-30T06:12:10.057Z,39.30
2022-12-30T06:14:41.095Z,34.67
2022-12-30T06:17:14.134Z,31.45
2022-12-30T06:19:42.053Z,38.35
2022-12-30T06:22:09.825Z,38.10
2022-12-30T06:24:38.091Z,40.38
2022-12-30T06:27:05.998Z,39.03
2022-12-30T06:29:33.875Z,38.13
2022-12-30T06:32:05.411Z,37.70
2022-12-30T06:34:33.295Z,44.35
2022-12-30T06:37:01.056Z,35.53
2022-12-30T06:39:29.157Z,33.70
2022-12-30T06:41:57.015Z,35.75
2022-12-30T06:44:24.675Z,34.95
2022-12-30T06:46:52.931Z,29.73
2022-12-30T06:49:20.821Z,34.60
2022-12-30T06:51:48.636Z,32.53
2022-12-30T06:54:16.870Z,38.78
2022-12-30T06:56:44.637Z,38.88
2022-12-30T06:59:12.467Z,30.80
2022-12-30T07:01:40.792Z,38.53
2022-12-30T07:04:08.694Z,30.98
2022-12-30T07:06:36.628Z,38.70
2022-12-30T07:09:05.004Z,37.60
2022-12-30T07:11:32.844Z,37.78
2022-12-30T07:14:00.639Z,29.50
2022-12-30T07:16:28.969Z,36.35
2022-12-30T07:18:59.917Z,28.83
2022-12-30T07:21:28.178Z,27.73
2022-12-30T07:23:56.100Z,32.85
2022-12-30T07:26:23.857Z,32.08
2022-12-30T07:28:55.834Z,36.90
2022-12-30T07:31:23.922Z,28.42
2022-12-30T07:33:52.134Z,30.10
2022-12-30T07:36:20.216Z,28.85
2022-12-30T07:38:51.293Z,35.00
2022-12-30T07:41:19.513Z,33.40
2022-12-30T07:43:47.272Z,31.85
2022-12-30T07:46:15.229Z,37.72
2022-12-30T07:48:43.507Z,23.02
2022-12-30T07:51:16.423Z,31.02
2022-12-30T07:53:45.722Z,32.70
2022-12-30T07:56:14.662Z,28.38
2022-12-30T07:58:42.507Z,31.62
2022-12-30T08:01:13.803Z,27.25
2022-12-30T08:03:45.255Z,29.75
2022-12-30T08:06:16.120Z,31.40
2022-12-30T08:08:47.889Z,27.30
2022-12-30T08:11:17.194Z,26.17
2022-12-30T08:13:45.867Z,25.60
2022-12-30T08:16:16.490Z,24.30
2022-12-30T08:18:45.129Z,26.90
2022-12-30T08:21:16.184Z,20.65
2022-12-30T08:23:45.657Z,16.37
2022-12-30T08:26:19.306Z,24.85
2022-12-30T08:28:47.565Z,22.13
2022-12-30T08:31:20.602Z,20.37
2022-12-30T08:33:48.591Z,25.37
2022-12-30T08:36:19.593Z,24.77
2022-12-30T08:38:56.107Z,22.45
2022-12-30T08:41:34.153Z,24.80
2022-12-30T08:44:03.694Z,27.42
2022-12-30T08:46:34.104Z,28.73
2022-12-30T08:49:02.435Z,26.92
2022-12-30T08:51:31.331Z,30.30
2022-12-30T08:53:59.770Z,24.25
2022-12-30T08:56:30.348Z,24.37
2022-12-30T08:59:02.274Z,25.50
2022-12-30T09:01:34.665Z,27.15
2022-12-30T09:04:04.652Z,23.50
2022-12-30T09:06:32.911Z,25.75
2022-12-30T09:09:04.462Z,27.13
2022-12-30T09:11:36.943Z,23.33
2022-12-30T09:14:06.795Z,24.17
2022-12-30T09:16:35.937Z,31.33
2022-12-30T09:19:04.558Z,24.67
2022-12-30T09:21:32.410Z,30.23
2022-12-30T09:24:00.839Z,27.23
2022-12-30T09:26:30.250Z,24.17
2022-12-30T09:28:59.685Z,25.58
2022-12-30T09:31:28.553Z,21.27
2022-12-30T09:33:59.710Z,23.60
2022-12-30T09:36:30.156Z,22.15
2022-12-30T09:38:58.150Z,20.23
2022-12-30T09:42:19.308Z,23.48
2022-12-30T09:45:09.743Z,26.48
2022-12-30T09:47:50.699Z,17.35
2022-12-30T09:50:31.321Z,22.67
2022-12-30T09:53:12.785Z,20.25
2022-12-30T09:56:01.568Z,24.67
2022-12-30T09:58:35.659Z,28.23
2022-12-30T10:01:41.799Z,22.70
2022-12-30T10:04:19.710Z,22.27
2022-12-30T10:07:04.324Z,22.55
2022-12-30T10:10:08.849Z,23.83
2022-12-30T10:13:09.162Z,23.00
2022-12-30T10:15:40.036Z,17.50
2022-12-30T10:18:28.397Z,14.35
2022-12-30T10:21:15.933Z,14.07
2022-12-30T10:24:07.481Z,22.58
2022-12-30T10:26:48.327Z,22.80
2022-12-30T10:29:23.065Z,18.48
2022-12-30T10:31:53.995Z,17.37
2022-12-30T10:34:32.387Z,21.83
2022-12-30T10:37:05.328Z,15.93
2022-12-30T10:39:36.437Z,18.08
2022-12-30T10:42:13.454Z,17.67
2022-12-30T10:44:50.390Z,23.40
2022-12-30T10:47:31.830Z,21.58
2022-12-30T10:50:17.211Z,22.48
2022-12-30T10:52:46.206Z,22.98
2022-12-30T10:55:17.118Z,22.23
2022-12-30T10:57:45.875Z,20.15
2022-12-30T11:00:15.647Z,14.85
2022-12-30T11:03:19.840Z,21.62
2022-12-30T11:05:48.118Z,24.55
2022-12-30T11:08:29.218Z,19.33
2022-12-30T11:11:05.845Z,24.10
2022-12-30T11:13:52.493Z,20.02
2022-12-30T11:16:30.035Z,18.20
2022-12-30T11:19:00.206Z,17.58
2022-12-30T11:21:31.648Z,21.77
2022-12-30T11:24:02.173Z,16.25
2022-12-30T11:26:34.495Z,18.52
2022-12-30T11:29:07.661Z,17.10
2022-12-30T11:31:38.597Z,18.52
2022-12-30T11:34:07.092Z,15.80
2022-12-30T11:36:39.618Z,20.23
2022-12-30T11:39:07.868Z,16.50
2022-12-30T11:41:50.585Z,15.93
2022-12-30T11:44:26.938Z,18.00
2022-12-30T11:47:05.765Z,15.20
2022-12-30T11:49:36.643Z,17.62
2022-12-30T11:52:04.818Z,18.52
2022-12-30T11:54:41.091Z,13.20
2022-12-30T11:57:23.052Z,18.85
2022-12-30T12:00:02.132Z,17.05
2022-12-30T12:02:42.535Z,20.73
2022-12-30T12:05:31.170Z,14.50
2022-12-30T12:08:11.744Z,18.85
2022-12-30T12:10:41.085Z,18.27
2022-12-30T12:13:37.730Z,17.48
2022-12-30T12:16:06.908Z,19.85
2022-12-30T12:18:54.504Z,15.20
2022-12-30T12:21:30.801Z,14.55
2022-12-30T12:24:35.796Z,16.12
2022-12-30T12:27:19.096Z,17.20
2022-12-30T12:29:47.341Z,14.57
2022-12-30T12:35:12.671Z,14.02
2022-12-30T12:38:07.798Z,16.25
2022-12-30T12:40:45.194Z,14.15
2022-12-30T12:43:34.810Z,15.18
2022-12-30T12:46:26.578Z,13.30
2022-12-30T12:49:06.663Z,13.62
2022-12-30T12:52:03.147Z,13.20
2022-12-30T12:54:56.351Z,14.18
2022-12-30T12:57:33.378Z,12.60
2022-12-30T13:00:12.780Z,16.15
2022-12-30T13:02:56.237Z,13.95
2022-12-30T13:05:39.626Z,15.55
2022-12-30T13:08:19.496Z,12.55
2022-12-30T13:14:32.567Z,14.57
2022-12-30T13:17:05.493Z,15.88
2022-12-30T13:19:36.191Z,16.52
2022-12-30T13:22:14.279Z,15.93
2022-12-30T13:24:48.469Z,13.95
2022-12-30T13:27:46.901Z,13.52
2022-12-30T13:30:18.146Z,14.45
2022-12-30T13:33:07.855Z,14.45
2022-12-30T13:35:59.240Z,16.20
2022-12-30T13:38:52.555Z,15.23
2022-12-30T13:41:23.098Z,13.80
2022-12-30T13:43:56.644Z,13.95
2022-12-30T13:46:34.944Z,15.82
2022-12-30T13:49:16.162Z,14.52
2022-12-30T13:51:58.840Z,14.35
2022-12-30T13:54:29.058Z,14.68
2022-12-30T13:57:00.935Z,17.60
2022-12-30T13:59:34.577Z,15.25
2022-12-30T14:02:25.713Z,12.95
2022-12-30T14:07:54.112Z,14.65
2022-12-30T14:10:45.694Z,14.05
2022-12-30T14:13:34.889Z,13.10
2022-12-30T14:16:22.744Z,15.35
2022-12-30T14:18:55.222Z,14.38
2022-12-30T14:21:27.272Z,12.57
2022-12-30T14:23:59.063Z,10.60
2022-12-30T14:26:39.722Z,14.30
2022-12-30T14:29:24.402Z,13.90
2022-12-30T14:31:57.925Z,13.25
2022-12-30T14:34:44.534Z,12.30
2022-12-30T14:37:21.162Z,14.60
2022-12-30T14:39:52.801Z,15.73
2022-12-30T14:42:24.046Z,13.68
2022-12-30T14:44:58.515Z,14.40
2022-12-30T14:47:51.621Z,13.62
2022-12-30T14:50:42.860Z,12.20
2022-12-30T14:53:14.288Z,15.80
2022-12-30T14:55:48.784Z,15.85
2022-12-30T14:58:23.641Z,13.10
2022-12-30T15:00:55.717Z,14.07
2022-12-30T15:03:26.033Z,12.88
2022-12-30T15:06:02.292Z,12.85
2022-12-30T15:08:39.616Z,12.60
2022-12-30T15:11:17.599Z,11.48
2022-12-30T15:13:53.074Z,12.32
2022-12-30T15:16:29.765Z,16.12
2022-12-30T15:19:05.010Z,13.48
2022-12-30T15:21:37.033Z,17.65
2022-12-30T15:24:14.944Z,13.85
2022-12-30T15:26:46.055Z,11.32
2022-12-30T15:29:34.471Z,12.55
2022-12-30T15:32:07.444Z,11.25
2022-12-30T15:34:42.602Z,12.63
2022-12-30T15:37:35.218Z,13.75
2022-12-30T15:40:13.918Z,15.02
2022-12-30T15:43:04.971Z,16.80
2022-12-30T15:45:45.792Z,13.40
2022-12-30T15:48:24.384Z,16.60
2022-12-30T15:51:01.597Z,13.32
2022-12-30T15:53:33.999Z,14.05
2022-12-30T15:56:05.637Z,14.52
2022-12-30T15:58:49.805Z,14.15
2022-12-30T16:01:29.787Z,13.27
2022-12-30T16:04:15.969Z,13.27
2022-12-30T16:06:54.837Z,13.93
2022-12-30T16:09:43.240Z,15.23
2022-12-30T16:12:32.414Z,17.92
2022-12-30T16:15:05.677Z,17.05
2022-12-30T16:17:57.571Z,24.35
2022-12-30T16:21:00.196Z,21.10
2022-12-30T16:23:44.780Z,17.98
2022-12-30T16:26:32.720Z,17.40
2022-12-30T16:29:23.463Z,19.37
2022-12-30T16:31:58.254Z,17.02
2022-12-30T16:34:29.591Z,23.02
2022-12-30T16:37:30.593Z,22.33
2022-12-30T16:39:51.190Z,19.52
2022-12-30T16:42:20.074Z,17.80
2022-12-30T16:44:51.330Z,14.48
2022-12-30T16:47:23.599Z,17.30
2022-12-30T16:49:54.304Z,19.33
2022-12-30T16:52:28.687Z,25.23
2022-12-30T16:55:00.106Z,23.40
2022-12-30T17:00:32.132Z,21.17
2022-12-30T17:02:55.979Z,18.00
2022-12-30T17:05:27.590Z,18.48
2022-12-30T17:07:57.236Z,20.70
2022-12-30T17:10:44.452Z,16.12
2022-12-30T17:13:24.840Z,16.50
2022-12-30T17:15:56.637Z,20.25
2022-12-30T17:18:26.449Z,21.27
2022-12-30T17:20:59.747Z,21.20
2022-12-30T17:23:34.982Z,22.10
2022-12-30T17:28:36.826Z,18.05
2022-12-30T17:31:08.306Z,20.00
2022-12-30T17:33:39.033Z,15.05
2022-12-30T17:36:08.902Z,19.92
2022-12-30T17:38:42.117Z,21.55
2022-12-30T17:41:13.522Z,24.73
2022-12-30T17:43:42.161Z,20.20
2022-12-30T17:46:19.905Z,19.83
2022-12-30T17:49:00.463Z,20.35
2022-12-30T17:51:31.072Z,20.08
2022-12-30T17:54:01.870Z,23.25
2022-12-30T17:56:30.763Z,23.00
2022-12-30T17:59:02.151Z,19.30
2022-12-30T18:01:40.301Z,22.95
2022-12-30T18:04:11.510Z,30.02
2022-12-30T18:06:41.418Z,23.08
2022-12-30T18:09:12.856Z,22.60
2022-12-30T18:11:42.365Z,28.92
2022-12-30T18:14:13.639Z,25.48
2022-12-30T18:16:42.325Z,25.27
2022-12-30T18:19:14.484Z,27.50
2022-12-30T18:21:42.877Z,24.90
2022-12-30T18:24:19.195Z,23.90
2022-12-30T18:26:49.196Z,24.30
2022-12-30T18:29:20.231Z,22.80
2022-12-30T18:31:55.084Z,31.30
2022-12-30T18:34:28.080Z,24.75
2022-12-30T18:36:59.663Z,25.50
2022-12-30T18:39:31.818Z,22.60
2022-12-30T18:42:04.910Z,34.40
2022-12-30T18:44:35.413Z,24.05
2022-12-30T18:47:04.908Z,26.08
2022-12-30T18:49:36.735Z,31.15
2022-12-30T18:52:07.317Z,24.95
2022-12-30T18:54:38.919Z,27.42
2022-12-30T18:57:08.509Z,29.20
2022-12-30T18:59:38.595Z,22.85
2022-12-30T19:02:10.373Z,28.17
2022-12-30T19:04:41.821Z,32.33
2022-12-30T19:07:10.797Z,29.33
2022-12-30T19:09:39.576Z,26.42
2022-12-30T19:12:09.936Z,24.12
2022-12-30T19:14:39.874Z,32.13
2022-12-30T19:17:10.923Z,26.00
2022-12-30T19:19:40.169Z,25.37
2022-12-30T19:22:14.570Z,20.23
2022-12-30T19:24:48.245Z,20.20
2022-12-30T19:27:18.085Z,22.37
2022-12-30T19:29:50.053Z,25.95
2022-12-30T19:32:21.267Z,23.77
2022-12-30T19:34:50.399Z,26.98
2022-12-30T19:37:20.084Z,24.58
2022-12-30T19:39:49.155Z,23.45
2022-12-30T19:42:18.889Z,21.23
2022-12-30T19:44:48.869Z,25.90
2022-12-30T19:47:18.969Z,24.20
2022-12-30T19:49:48.444Z,25.92
2022-12-30T19:52:18.945Z,25.70
2022-12-30T19:54:50.483Z,25.02
2022-12-30T19:57:19.471Z,23.65
2022-12-30T19:59:48.564Z,31.85
2022-12-30T20:02:18.739Z,26.90
2022-12-30T20:04:49.477Z,30.83
2022-12-30T20:07:22.496Z,30.67
2022-12-30T20:10:09.681Z,27.20
2022-12-30T20:12:44.385Z,23.75
2022-12-30T20:15:13.526Z,29.12
2022-12-30T20:17:41.634Z,28.90
2022-12-30T20:20:09.819Z,25.98
2022-12-30T20:22:38.689Z,25.37
2022-12-30T20:25:08.091Z,28.77
2022-12-30T20:27:36.285Z,26.75
2022-12-30T20:30:05.409Z,25.37
2022-12-30T20:32:33.891Z,27.80
2022-12-30T20:35:03.869Z,29.35
2022-12-30T20:37:32.770Z,26.85
2022-12-30T20:40:01.428Z,30.77
2022-12-30T20:42:31.632Z,23.95
2022-12-30T20:45:00.195Z,23.52
2022-12-30T20:47:28.248Z,26.87
2022-12-30T20:49:56.514Z,24.70
2022-12-30T20:52:25.198Z,24.92
2022-12-30T20:54:53.544Z,28.75
2022-12-30T20:57:21.874Z,29.92
2022-12-30T20:59:50.338Z,28.67
2022-12-30T21:02:18.286Z,27.10
2022-12-30T21:04:46.507Z,30.20
2022-12-30T21:07:15.640Z,22.35
2022-12-30T21:09:43.549Z,31.02
2022-12-30T21:12:11.419Z,29.20
2022-12-30T21:14:39.633Z,28.50
2022-12-30T21:17:10.254Z,27.05
2022-12-30T21:19:38.289Z,27.17
2022-12-30T21:22:06.555Z,23.38
2022-12-30T21:24:37.713Z,24.33
2022-12-30T21:27:09.401Z,24.45
2022-12-30T21:29:37.472Z,30.87
2022-12-30T21:32:05.595Z,24.48
2022-12-30T21:34:33.538Z,24.30
2022-12-30T21:37:01.812Z,22.90
2022-12-30T21:39:49.339Z,26.35
2022-12-30T21:42:39.404Z,29.37
2022-12-30T21:45:29.749Z,23.27
2022-12-30T21:48:16.753Z,22.77
2022-12-30T21:51:07.178Z,24.35
2022-12-30T21:57:08.895Z,27.20
2022-12-30T22:00:08.584Z,27.73
2022-12-30T22:02:46.207Z,24.98
2022-12-30T22:05:18.103Z,25.27
2022-12-30T22:07:48.586Z,25.77
2022-12-30T22:10:19.504Z,25.83
2022-12-30T22:12:49.603Z,27.00
2022-12-30T22:15:20.763Z,31.77
2022-12-30T22:17:50.090Z,27.37
2022-12-30T22:20:18.763Z,24.02
2022-12-30T22:22:51.620Z,25.27
2022-12-30T22:25:22.635Z,26.73
2022-12-30T22:27:51.162Z,25.92
2022-12-30T22:30:20.798Z,26.33
2022-12-30T22:32:49.784Z,28.30
2022-12-30T22:35:19.798Z,30.35
2022-12-30T22:37:48.712Z,25.80
2022-12-30T22:40:18.807Z,30.25
2022-12-30T22:42:47.161Z,29.02
2022-12-30T22:45:17.881Z,30.60
2022-12-30T22:47:50.009Z,29.80
2022-12-30T22:50:20.566Z,26.12
2022-12-30T22:52:49.931Z,29.55
2022-12-30T22:55:20.663Z,28.10
2022-12-30T22:57:51.472Z,31.35
2022-12-30T23:00:20.368Z,32.40
2022-12-30T23:02:49.065Z,35.95
2022-12-30T23:05:17.401Z,26.95
2022-12-30T23:07:46.044Z,30.23
2022-12-30T23:10:16.597Z,32.83
2022-12-30T23:13:03.343Z,26.92
2022-12-30T23:15:50.647Z,26.75
2022-12-30T23:18:18.735Z,28.85
2022-12-30T23:20:46.776Z,26.23
2022-12-30T23:23:33.505Z,29.05
2022-12-30T23:26:01.790Z,25.30
2022-12-30T23:28:29.677Z,21.52
2022-12-30T23:30:57.597Z,28.02
2022-12-30T23:33:26.121Z,31.08
2022-12-30T23:35:53.995Z,23.83
2022-12-30T23:38:21.931Z,29.33
2022-12-30T23:40:50.231Z,24.63
2022-12-30T23:43:19.797Z,26.62
2022-12-30T23:45:47.800Z,28.42
2022-12-30T23:48:16.117Z,28.25
2022-12-30T23:50:44.024Z,28.27
2022-12-30T23:53:12.049Z,27.52
2022-12-30T23:55:40.924Z,22.50
2022-12-30T23:58:09.512Z,27.70
